Time;durP1;ratioP1;P1;durP2;ratioP2;P2;SDS_P1;SDS_P2;PMS_P1;PMS_P2;Temp;Humidity;BMP_temperature;BMP_pressure;BME280_temperature;BME280_humidity;BME280_pressure;Samples;Min_cycle;Max_cycle;Signal;HPM_P1;HPM_P2
2022/09/07 00:01:46;;;;;;;6.18;2.10;;;18.60;99.90;;;;;;5028814;28;20266;-69
2022/09/07 00:04:12;;;;;;;4.05;2.22;;;18.60;99.90;;;;;;5027460;28;20221;-70
2022/09/07 00:06:38;;;;;;;4.63;2.00;;;18.60;99.90;;;;;;5024676;28;20215;-70
2022/09/07 00:09:03;;;;;;;4.05;2.08;;;18.60;99.90;;;;;;5025523;28;20666;-70
2022/09/07 00:11:29;;;;;;;6.43;2.20;;;18.60;99.90;;;;;;5030193;28;20200;-70
2022/09/07 00:13:55;;;;;;;3.80;1.92;;;18.60;99.90;;;;;;5027027;28;20597;-70
2022/09/07 00:16:24;;;;;;;5.28;2.38;;;18.50;99.90;;;;;;5026449;28;20291;-71
2022/09/07 00:18:53;;;;;;;6.00;2.20;;;18.40;99.90;;;;;;5028274;28;20242;-70
2022/09/07 00:21:18;;;;;;;4.68;2.17;;;18.40;99.90;;;;;;5028521;28;20209;-70
2022/09/07 00:23:46;;;;;;;4.68;1.90;;;18.40;99.90;;;;;;5025288;28;20204;-70
2022/09/07 00:26:15;;;;;;;4.20;1.83;;;18.30;99.90;;;;;;5025097;28;20212;-69
2022/09/07 00:28:41;;;;;;;3.92;2.25;;;18.30;99.90;;;;;;5029263;28;20200;-69
2022/09/07 00:31:16;;;;;;;3.22;2.10;;;18.20;99.90;;;;;;5024853;28;20228;-70
2022/09/07 00:33:43;;;;;;;6.55;2.20;;;18.20;99.90;;;;;;5022157;28;20204;-70
2022/09/07 00:36:09;;;;;;;3.97;2.13;;;18.20;99.90;;;;;;5026781;28;20216;-71
2022/09/07 00:38:35;;;;;;;2.47;1.77;;;18.10;99.90;;;;;;5030983;28;20255;-71
2022/09/07 00:41:00;;;;;;;3.00;2.28;;;18.10;99.90;;;;;;5022976;28;20731;-70
2022/09/07 00:43:45;;;;;;;2.58;2.10;;;18.00;99.90;;;;;;5025552;28;20278;-71
2022/09/07 00:46:21;;;;;;;4.25;2.22;;;18.00;99.90;;;;;;5027819;28;20200;-71
2022/09/07 00:49:07;;;;;;;3.17;2.15;;;18.00;99.90;;;;;;5022549;28;20216;-71
2022/09/07 00:51:40;;;;;;;5.57;2.15;;;18.00;99.90;;;;;;5026224;28;20222;-70
2022/09/07 00:54:13;;;;;;;3.42;2.00;;;17.90;99.90;;;;;;5026333;28;20231;-70
2022/09/07 00:56:42;;;;;;;4.60;1.98;;;17.90;99.90;;;;;;5027713;28;20522;-70
2022/09/07 00:59:09;;;;;;;3.00;1.83;;;17.90;99.90;;;;;;5022640;28;20721;-70
2022/09/07 01:01:37;;;;;;;5.20;1.80;;;17.80;99.90;;;;;;5024195;28;20205;-70
2022/09/07 01:04:02;;;;;;;2.92;2.22;;;17.70;99.90;;;;;;5027533;28;20612;-71
2022/09/07 01:06:33;;;;;;;6.38;2.03;;;17.70;99.90;;;;;;5025038;28;20303;-70
2022/09/07 01:09:09;;;;;;;3.20;2.00;;;17.70;99.90;;;;;;5024911;28;20179;-71
2022/09/07 01:11:35;;;;;;;4.25;2.00;;;17.70;99.90;;;;;;5026166;28;20207;-70
2022/09/07 01:14:04;;;;;;;5.85;2.00;;;17.60;99.90;;;;;;5023947;28;20243;-71
2022/09/07 01:16:38;;;;;;;3.13;1.80;;;17.60;99.90;;;;;;5024077;28;20206;-71
2022/09/07 01:19:06;;;;;;;2.92;1.83;;;17.60;99.90;;;;;;5024343;28;20243;-70
2022/09/07 01:22:03;;;;;;;4.22;1.77;;;17.60;99.90;;;;;;5028891;28;20204;-71
2022/09/07 01:24:48;;;;;;;3.15;1.83;;;17.60;99.90;;;;;;5027808;28;20209;-71
2022/09/07 01:27:51;;;;;;;7.10;1.92;;;17.50;99.90;;;;;;5024710;28;20291;-70
2022/09/07 01:30:18;;;;;;;4.60;1.95;;;17.50;99.90;;;;;;5025858;28;20291;-70
2022/09/07 01:33:05;;;;;;;5.43;1.88;;;17.50;99.90;;;;;;5020807;28;20208;-72
2022/09/07 01:35:42;;;;;;;8.82;2.10;;;17.40;99.90;;;;;;5027357;28;20200;-70
2022/09/07 01:38:21;;;;;;;4.22;2.00;;;17.40;99.90;;;;;;5028634;28;20312;-70
2022/09/07 01:41:08;;;;;;;3.95;1.83;;;17.40;99.90;;;;;;5019742;28;20208;-68
2022/09/07 01:43:51;;;;;;;4.00;1.88;;;17.40;99.90;;;;;;5026785;28;20204;-70
2022/09/07 01:46:28;;;;;;;3.67;1.60;;;17.30;99.90;;;;;;5031884;28;20204;-70
2022/09/07 01:49:03;;;;;;;2.70;1.92;;;17.30;99.90;;;;;;5023897;28;20210;-71
2022/09/07 01:51:34;;;;;;;2.85;1.65;;;17.20;99.90;;;;;;5027414;28;20219;-70
2022/09/07 01:54:10;;;;;;;4.45;1.98;;;17.20;99.90;;;;;;5028629;28;20199;-71
2022/09/07 01:56:41;;;;;;;2.78;1.77;;;17.20;99.90;;;;;;5031208;28;20195;-71
2022/09/07 01:59:26;;;;;;;7.57;1.98;;;17.20;99.90;;;;;;5029867;28;20709;-71
2022/09/07 02:02:02;;;;;;;3.38;2.00;;;17.10;99.90;;;;;;5029425;28;20753;-72
2022/09/07 02:04:34;;;;;;;3.35;1.88;;;17.10;99.90;;;;;;5028449;28;20204;-70
2022/09/07 02:07:12;;;;;;;5.63;1.90;;;17.10;99.90;;;;;;5026802;28;20208;-70
2022/09/07 02:10:04;;;;;;;4.70;1.90;;;17.10;99.90;;;;;;5026845;28;20200;-70
2022/09/07 02:12:37;;;;;;;4.32;1.80;;;17.10;99.90;;;;;;5033085;28;20216;-70
2022/09/07 02:15:17;;;;;;;3.08;1.95;;;17.10;99.90;;;;;;5023646;28;20223;-70
2022/09/07 02:17:49;;;;;;;6.63;2.15;;;17.00;99.90;;;;;;5031110;28;20219;-70
2022/09/07 02:20:20;;;;;;;4.80;1.92;;;17.00;99.90;;;;;;5032943;28;20266;-70
2022/09/07 02:22:52;;;;;;;5.18;2.30;;;17.00;99.90;;;;;;5030756;28;20204;-68
2022/09/07 02:25:28;;;;;;;4.38;1.80;;;17.00;99.90;;;;;;5027170;28;20197;-69
2022/09/07 02:28:06;;;;;;;6.50;2.08;;;16.90;99.90;;;;;;5032234;28;20228;-69
2022/09/07 02:30:32;;;;;;;5.43;1.92;;;16.90;99.90;;;;;;5030564;28;20210;-70
2022/09/07 02:32:58;;;;;;;4.13;1.83;;;16.90;99.90;;;;;;5033120;28;20286;-71
2022/09/07 02:35:24;;;;;;;4.05;2.50;;;16.90;99.90;;;;;;5033817;28;20196;-71
2022/09/07 02:37:51;;;;;;;5.05;2.35;;;16.90;99.90;;;;;;5032093;28;20308;-70
2022/09/07 02:40:17;;;;;;;4.50;1.77;;;16.90;99.90;;;;;;5032401;28;20207;-70
2022/09/07 02:42:44;;;;;;;4.60;2.00;;;16.80;99.90;;;;;;5031670;28;20197;-70
2022/09/07 02:45:12;;;;;;;6.47;2.10;;;16.80;99.90;;;;;;5031346;28;20265;-71
2022/09/07 02:47:37;;;;;;;11.40;2.35;;;16.70;99.90;;;;;;5033662;28;20256;-70
2022/09/07 02:50:16;;;;;;;9.25;2.05;;;16.70;99.90;;;;;;5031949;28;20804;-70
2022/09/07 02:52:49;;;;;;;13.55;2.50;;;16.70;99.90;;;;;;5028335;28;20748;-71
2022/09/07 02:55:33;;;;;;;2.72;1.75;;;16.70;99.90;;;;;;5030308;28;20672;-71
2022/09/07 02:58:38;;;;;;;4.88;2.08;;;16.70;99.90;;;;;;5044295;28;20671;-70
2022/09/07 03:01:12;;;;;;;3.65;2.38;;;16.70;99.90;;;;;;5032006;28;20200;-70
2022/09/07 03:03:52;;;;;;;4.32;2.10;;;16.60;99.90;;;;;;5032701;28;20674;-70
2022/09/07 03:06:35;;;;;;;7.20;2.28;;;16.60;99.90;;;;;;5030585;28;20720;-70
2022/09/07 03:09:06;;;;;;;3.63;2.00;;;16.60;99.90;;;;;;5032142;28;20180;-70
2022/09/07 03:11:35;;;;;;;6.95;2.13;;;16.60;99.90;;;;;;5026035;28;20196;-71
2022/09/07 03:14:19;;;;;;;4.45;2.65;;;16.60;99.90;;;;;;5031675;28;20224;-70
2022/09/07 03:16:48;;;;;;;4.70;2.10;;;16.50;99.90;;;;;;5029485;28;20706;-70
2022/09/07 03:19:14;;;;;;;5.25;2.00;;;16.60;99.90;;;;;;5031719;28;20281;-70
2022/09/07 03:21:39;;;;;;;2.78;1.80;;;16.50;99.90;;;;;;5031907;28;20256;-70
2022/09/07 03:24:05;;;;;;;4.40;2.28;;;16.50;99.90;;;;;;5031718;28;20208;-70
2022/09/07 03:26:31;;;;;;;3.35;2.20;;;16.50;99.90;;;;;;5032930;28;20179;-70
2022/09/07 03:28:56;;;;;;;7.95;2.05;;;16.50;99.90;;;;;;5031544;28;20223;-71
2022/09/07 03:31:22;;;;;;;2.42;1.85;;;16.50;99.90;;;;;;5031686;28;20262;-70
2022/09/07 03:33:48;;;;;;;5.60;2.25;;;16.40;99.90;;;;;;5031955;28;20215;-70
2022/09/07 03:36:13;;;;;;;11.13;3.00;;;16.50;99.90;;;;;;5031510;28;20211;-71
2022/09/07 03:38:39;;;;;;;6.68;2.40;;;16.40;99.90;;;;;;5032727;28;20604;-70
2022/09/07 03:41:05;;;;;;;7.72;2.35;;;16.40;99.90;;;;;;5029938;28;20587;-71
2022/09/07 03:43:32;;;;;;;8.80;2.90;;;16.40;99.90;;;;;;5031430;28;20206;-71
2022/09/07 03:45:59;;;;;;;4.80;2.40;;;16.40;99.90;;;;;;5030612;28;20213;-70
2022/09/07 03:48:26;;;;;;;7.70;2.13;;;16.40;99.90;;;;;;5031750;28;20196;-71
2022/09/07 03:50:57;;;;;;;4.32;2.58;;;16.30;99.90;;;;;;5031369;28;20200;-70
2022/09/07 03:53:22;;;;;;;7.80;3.63;;;16.30;99.90;;;;;;5030591;28;20262;-71
2022/09/07 03:55:59;;;;;;;6.47;2.42;;;16.30;99.90;;;;;;5031602;28;20213;-69
2022/09/07 03:58:25;;;;;;;8.85;2.70;;;16.30;99.90;;;;;;5031507;28;20211;-70
2022/09/07 04:00:51;;;;;;;4.70;2.47;;;16.30;99.90;;;;;;5029864;28;20231;-69
2022/09/07 04:03:16;;;;;;;7.45;2.58;;;16.20;99.90;;;;;;5030945;28;20455;-70
2022/09/07 04:05:42;;;;;;;8.02;2.83;;;16.20;99.90;;;;;;5030462;28;20267;-70
2022/09/07 04:08:07;;;;;;;6.18;2.70;;;16.20;99.90;;;;;;5030439;28;20204;-71
2022/09/07 04:10:37;;;;;;;4.88;2.40;;;16.20;99.90;;;;;;5030717;28;20204;-70
2022/09/07 04:13:03;;;;;;;4.13;2.60;;;16.20;99.90;;;;;;5028722;28;20216;-69
2022/09/07 04:15:28;;;;;;;4.75;2.35;;;16.20;99.90;;;;;;5029087;28;20208;-71
2022/09/07 04:17:54;;;;;;;5.40;2.83;;;16.20;99.90;;;;;;5031172;28;20206;-71
2022/09/07 04:20:19;;;;;;;9.73;3.10;;;16.20;99.90;;;;;;5031127;28;20864;-71
2022/09/07 04:22:48;;;;;;;7.78;3.17;;;16.20;99.90;;;;;;5030907;28;20209;-69
2022/09/07 04:25:15;;;;;;;4.15;2.50;;;16.20;99.90;;;;;;5023396;28;20204;-72
2022/09/07 04:27:40;;;;;;;4.97;2.55;;;16.20;99.90;;;;;;5030837;28;20200;-71
2022/09/07 04:30:06;;;;;;;8.20;2.80;;;16.20;99.90;;;;;;5030420;28;20187;-72
2022/09/07 04:32:32;;;;;;;4.10;2.60;;;16.20;99.90;;;;;;5024034;28;20574;-71
2022/09/07 04:34:57;;;;;;;4.05;2.45;;;16.20;99.90;;;;;;5025735;28;20208;-71
2022/09/07 04:37:23;;;;;;;3.33;2.40;;;16.20;99.90;;;;;;5028387;28;20200;-73
2022/09/07 04:39:48;;;;;;;4.82;2.47;;;16.20;99.90;;;;;;5026833;28;20231;-70
2022/09/07 04:42:14;;;;;;;5.85;2.42;;;16.20;99.90;;;;;;5022662;28;20634;-71
2022/09/07 04:44:40;;;;;;;3.38;2.40;;;16.20;99.90;;;;;;5028077;28;20670;-71
2022/09/07 04:47:05;;;;;;;6.32;2.80;;;16.10;99.90;;;;;;5026169;28;20711;-70
2022/09/07 04:49:31;;;;;;;7.00;3.08;;;16.00;99.90;;;;;;5020998;28;20574;-70
2022/09/07 04:51:56;;;;;;;10.63;6.50;;;16.10;99.90;;;;;;5025629;28;20244;-70
2022/09/07 04:54:22;;;;;;;9.63;4.70;;;16.50;99.90;;;;;;5026364;28;20262;-71
2022/09/07 04:56:47;;;;;;;8.77;3.60;;;16.80;99.90;;;;;;5025338;28;20194;-71
2022/09/07 04:59:13;;;;;;;6.13;3.80;;;16.70;99.90;;;;;;5021252;28;20662;-70
2022/09/07 05:01:38;;;;;;;4.95;2.80;;;16.80;99.90;;;;;;5026478;28;20219;-70
2022/09/07 05:04:04;;;;;;;5.20;3.00;;;16.80;99.90;;;;;;5029003;28;20307;-70
2022/09/07 05:06:30;;;;;;;5.80;2.75;;;16.70;99.90;;;;;;5024002;28;20201;-70
2022/09/07 05:08:57;;;;;;;4.78;2.83;;;16.60;99.90;;;;;;5023566;28;20208;-70
2022/09/07 05:11:23;;;;;;;6.68;3.10;;;16.40;99.90;;;;;;5023869;28;20191;-71
2022/09/07 05:13:49;;;;;;;8.15;3.17;;;16.30;99.90;;;;;;5026160;28;20222;-71
2022/09/07 05:16:17;;;;;;;4.28;3.03;;;16.50;99.90;;;;;;5021954;28;20201;-70
2022/09/07 05:18:43;;;;;;;4.55;2.75;;;16.40;99.90;;;;;;5024873;28;20206;-70
2022/09/07 05:21:18;;;;;;;6.60;2.95;;;16.60;99.90;;;;;;5028132;28;20208;-70
2022/09/07 05:23:47;;;;;;;7.13;2.88;;;16.80;99.90;;;;;;5024061;28;20346;-70
2022/09/07 05:26:13;;;;;;;6.03;2.92;;;17.90;99.90;;;;;;5023944;28;20212;-71
2022/09/07 05:28:39;;;;;;;3.20;2.42;;;19.30;99.90;;;;;;5028125;28;20200;-71
2022/09/07 05:31:05;;;;;;;6.18;2.72;;;19.90;99.90;;;;;;5023191;28;20208;-71
2022/09/07 05:33:31;;;;;;;4.07;2.38;;;21.00;99.90;;;;;;5023199;28;20212;-71
2022/09/07 05:35:57;;;;;;;7.45;2.90;;;21.00;99.90;;;;;;5024497;28;20594;-69
2022/09/07 05:38:24;;;;;;;9.07;3.13;;;21.10;99.90;;;;;;5029435;28;20180;-70
2022/09/07 05:40:50;;;;;;;7.55;2.70;;;21.90;99.90;;;;;;5023017;28;20231;-71
2022/09/07 05:43:16;;;;;;;4.78;2.78;;;21.70;99.90;;;;;;5023200;28;20244;-70
2022/09/07 05:45:41;;;;;;;8.65;3.25;;;22.20;99.90;;;;;;5027582;28;20210;-70
2022/09/07 05:48:07;;;;;;;6.22;2.75;;;22.00;99.90;;;;;;5023582;28;20215;-70
2022/09/07 05:50:34;;;;;;;7.65;3.03;;;22.10;99.90;;;;;;5023328;28;20176;-70
2022/09/07 05:53:00;;;;;;;10.75;3.10;;;21.50;99.90;;;;;;5024108;28;20274;-70
2022/09/07 05:55:26;;;;;;;6.30;2.97;;;21.80;99.90;;;;;;5024795;28;20201;-70
2022/09/07 05:57:52;;;;;;;6.80;3.28;;;22.60;99.90;;;;;;5022542;28;20563;-69
2022/09/07 06:00:20;;;;;;;10.30;3.30;;;22.60;99.90;;;;;;5025324;28;20232;-70
2022/09/07 06:02:46;;;;;;;5.88;3.17;;;23.20;99.90;;;;;;5028219;28;20180;-69
2022/09/07 06:05:12;;;;;;;4.63;3.20;;;23.60;99.90;;;;;;5025166;28;20220;-71
2022/09/07 06:07:37;;;;;;;8.40;3.20;;;23.00;99.90;;;;;;5023393;28;20736;-69
2022/09/07 06:10:04;;;;;;;11.02;3.50;;;24.00;99.90;;;;;;5024491;28;20844;-70
2022/09/07 06:12:30;;;;;;;5.55;2.75;;;23.90;99.90;;;;;;5028351;28;20609;-71
2022/09/07 06:14:55;;;;;;;6.38;2.83;;;24.40;99.90;;;;;;5022072;28;20219;-70
2022/09/07 06:17:21;;;;;;;6.70;3.50;;;23.60;99.90;;;;;;5025524;28;20227;-71
2022/09/07 06:19:46;;;;;;;8.52;3.42;;;23.70;99.90;;;;;;5026670;28;20209;-70
2022/09/07 06:22:12;;;;;;;7.43;2.90;;;24.10;99.90;;;;;;5024626;28;20209;-70
2022/09/07 06:24:37;;;;;;;7.22;3.40;;;24.40;99.90;;;;;;5023094;28;20339;-70
2022/09/07 06:27:03;;;;;;;8.93;3.30;;;24.00;99.90;;;;;;5024132;28;20556;-71
2022/09/07 06:29:29;;;;;;;11.30;3.25;;;23.70;99.90;;;;;;5028632;28;20532;-70
2022/09/07 06:31:54;;;;;;;6.38;3.22;;;24.90;99.90;;;;;;5027862;28;20728;-68
2022/09/07 06:34:21;;;;;;;11.48;3.53;;;24.90;99.90;;;;;;5026019;28;20205;-70
2022/09/07 06:36:47;;;;;;;11.52;3.58;;;24.40;99.90;;;;;;5030508;28;20208;-70
2022/09/07 06:39:12;;;;;;;9.18;3.58;;;25.00;99.90;;;;;;5028979;28;20267;-71
2022/09/07 06:41:38;;;;;;;9.98;3.22;;;24.80;99.90;;;;;;5026628;28;20574;-70
2022/09/07 06:44:03;;;;;;;6.50;3.50;;;24.40;99.90;;;;;;5027369;28;20239;-70
2022/09/07 06:46:29;;;;;;;6.63;3.63;;;23.20;99.90;;;;;;5031669;28;20211;-71
2022/09/07 06:48:55;;;;;;;7.95;3.40;;;23.30;99.90;;;;;;5023228;28;20208;-70
2022/09/07 06:51:25;;;;;;;8.23;3.35;;;23.10;99.90;;;;;;5025629;28;20213;-71
2022/09/07 06:53:55;;;;;;;6.82;3.13;;;22.00;99.90;;;;;;5029805;28;20753;-71
2022/09/07 06:56:21;;;;;;;9.98;3.55;;;22.20;99.90;;;;;;5027827;28;20635;-71
2022/09/07 06:58:47;;;;;;;12.27;6.50;;;21.60;99.90;;;;;;5025330;28;20211;-69
2022/09/07 07:01:19;;;;;;;7.18;4.78;;;22.60;99.90;;;;;;5025887;28;20205;-70
2022/09/07 07:03:45;;;;;;;10.68;4.15;;;22.00;99.90;;;;;;5029413;28;20744;-70
2022/09/07 07:06:11;;;;;;;12.25;5.97;;;21.60;99.90;;;;;;5025088;28;20208;-71
2022/09/07 07:08:38;;;;;;;12.27;3.67;;;22.20;99.90;;;;;;5027892;28;20165;-70
2022/09/07 07:11:07;;;;;;;14.23;4.00;;;22.60;99.90;;;;;;5027046;28;20387;-70
2022/09/07 07:13:34;;;;;;;6.10;3.75;;;22.80;99.90;;;;;;5028166;28;20709;-71
2022/09/07 07:16:05;;;;;;;9.60;4.82;;;23.00;99.90;;;;;;5024850;28;20223;-71
2022/09/07 07:18:31;;;;;;;11.18;4.55;;;23.30;99.90;;;;;;5027348;28;20200;-70
2022/09/07 07:20:57;;;;;;;6.45;3.47;;;24.00;99.90;;;;;;5027570;28;20264;-71
2022/09/07 07:23:23;;;;;;;8.27;4.32;;;24.00;99.90;;;;;;5025844;28;20587;-71
2022/09/07 07:25:49;;;;;;;6.40;3.70;;;24.20;99.90;;;;;;5027114;28;20201;-71
2022/09/07 07:28:15;;;;;;;10.07;4.68;;;24.70;99.90;;;;;;5027900;28;20248;-70
2022/09/07 07:30:41;;;;;;;9.63;3.80;;;24.50;99.90;;;;;;5027382;28;20310;-68
2022/09/07 07:33:07;;;;;;;7.18;4.35;;;25.70;99.90;;;;;;5024525;28;20228;-69
2022/09/07 07:35:33;;;;;;;6.88;3.85;;;26.60;99.90;;;;;;5028466;28;20260;-69
2022/09/07 07:37:58;;;;;;;6.10;4.10;;;27.10;99.90;;;;;;5028338;28;20633;-70
2022/09/07 07:40:26;;;;;;;8.77;4.20;;;27.40;99.90;;;;;;5024700;28;20284;-71
2022/09/07 07:42:52;;;;;;;5.05;4.10;;;27.60;99.90;;;;;;5026088;28;20215;-69
2022/09/07 07:45:17;;;;;;;6.97;3.65;;;26.60;99.90;;;;;;5042971;28;20205;-69
2022/09/07 07:47:48;;;;;;;11.30;4.07;;;25.70;99.90;;;;;;5027747;28;20180;-70
2022/09/07 07:50:14;;;;;;;10.25;4.40;;;26.00;99.90;;;;;;5022631;28;20382;-71
2022/09/07 07:52:40;;;;;;;6.93;5.40;;;26.40;99.90;;;;;;5027642;28;20307;-69
2022/09/07 07:55:06;;;;;;;9.43;4.43;;;25.50;99.90;;;;;;5028976;28;20215;-70
2022/09/07 07:57:32;;;;;;;17.42;6.22;;;25.10;99.90;;;;;;5023186;28;20235;-69
2022/09/07 07:59:58;;;;;;;10.65;4.90;;;24.00;99.90;;;;;;5025130;28;20176;-70
2022/09/07 08:02:23;;;;;;;8.50;4.43;;;23.80;99.90;;;;;;5029333;28;20200;-71
2022/09/07 08:04:49;;;;;;;6.85;4.32;;;24.20;99.90;;;;;;5030743;28;20286;-70
2022/09/07 08:07:16;;;;;;;10.98;4.43;;;24.50;99.90;;;;;;5021932;28;20209;-70
2022/09/07 08:09:43;;;;;;;12.57;3.90;;;25.20;99.90;;;;;;5027236;28;20204;-71
2022/09/07 08:12:12;;;;;;;7.03;4.30;;;25.20;99.90;;;;;;5028669;28;20647;-70
2022/09/07 08:14:41;;;;;;;12.10;4.53;;;26.00;99.90;;;;;;5024597;28;20227;-71
2022/09/07 08:17:11;;;;;;;9.40;4.82;;;27.00;99.90;;;;;;5023984;28;20359;-71
2022/09/07 08:19:37;;;;;;;6.70;4.25;;;26.60;99.90;;;;;;5028156;28;20258;-71
2022/09/07 08:22:02;;;;;;;7.38;4.70;;;26.00;99.90;;;;;;5027319;28;20760;-71
2022/09/07 08:24:30;;;;;;;8.98;5.05;;;25.20;99.90;;;;;;5021910;28;20299;-70
2022/09/07 08:26:55;;;;;;;6.57;5.10;;;24.70;99.90;;;;;;5025137;28;20179;-70
2022/09/07 08:29:21;;;;;;;7.60;4.75;;;25.50;99.90;;;;;;5028843;28;20176;-71
2022/09/07 08:31:47;;;;;;;10.88;5.13;;;25.20;99.90;;;;;;5026309;28;20212;-69
2022/09/07 08:34:12;;;;;;;10.82;6.10;;;25.80;99.90;;;;;;5023252;28;20596;-70
2022/09/07 08:36:38;;;;;;;8.00;4.55;;;25.10;99.90;;;;;;5026812;28;20254;-69
2022/09/07 08:39:04;;;;;;;8.10;4.45;;;25.40;99.90;;;;;;5028039;28;20180;-69
2022/09/07 08:41:53;;;;;;;7.25;4.68;;;25.10;99.90;;;;;;5023055;28;20243;-70
2022/09/07 08:44:36;;;;;;;9.70;5.70;;;25.80;99.90;;;;;;5024459;28;20567;-70
2022/09/07 08:47:27;;;;;;;11.30;4.80;;;25.70;99.90;;;;;;5026951;28;20518;-70
2022/09/07 08:50:09;;;;;;;7.28;4.80;;;25.10;99.90;;;;;;5020335;28;20212;-70
2022/09/07 08:52:56;;;;;;;8.88;6.20;;;25.60;99.90;;;;;;5026129;28;20212;-71
2022/09/07 08:55:30;;;;;;;12.25;6.32;;;25.50;99.90;;;;;;5043521;28;20285;-71
2022/09/07 08:58:16;;;;;;;6.97;4.43;;;25.30;99.90;;;;;;5025903;28;21597;-70
2022/09/07 09:00:42;;;;;;;8.00;5.45;;;24.90;99.90;;;;;;5025772;28;20266;-71
2022/09/07 09:03:21;;;;;;;8.15;4.82;;;24.70;99.90;;;;;;5017504;28;20687;-70
2022/09/07 09:06:21;;;;;;;11.10;6.00;;;24.60;99.90;;;;;;5028672;28;20212;-70
2022/09/07 09:08:56;;;;;;;10.70;5.57;;;24.70;99.90;;;;;;5026141;28;20227;-70
2022/09/07 09:11:34;;;;;;;7.53;5.20;;;24.60;99.90;;;;;;5028532;28;20274;-71
2022/09/07 09:14:43;;;;;;;8.27;5.10;;;24.50;99.90;;;;;;5026945;28;20890;-70
2022/09/07 09:17:31;;;;;;;7.53;4.65;;;24.80;99.90;;;;;;5025896;28;20311;-72
2022/09/07 09:22:27;;;;;;;7.30;4.97;;;25.60;99.90;;;;;;5004385;28;20239;-75
2022/09/07 09:25:16;;;;;;;8.10;5.43;;;25.40;99.90;;;;;;5009155;28;20209;-72
2022/09/07 09:27:41;;;;;;;7.43;5.20;;;25.70;99.90;;;;;;5002148;28;20292;-73
2022/09/07 09:30:15;;;;;;;6.53;4.50;;;25.50;99.90;;;;;;5005907;28;20208;-76
2022/09/07 09:32:43;;;;;;;13.95;6.43;;;25.40;99.90;;;;;;5029139;28;20196;-75
2022/09/07 09:35:30;;;;;;;9.82;7.43;;;24.90;99.90;;;;;;5039851;28;20785;-72
2022/09/07 09:37:56;;;;;;;10.90;5.43;;;24.70;99.90;;;;;;5027073;28;20680;-75
2022/09/07 09:40:30;;;;;;;9.18;6.63;;;24.40;99.90;;;;;;5025186;28;20215;-76
2022/09/07 09:43:20;;;;;;;9.10;5.40;;;24.30;99.90;;;;;;5025102;28;20238;-75
2022/09/07 09:45:50;;;;;;;11.13;5.40;;;24.50;99.90;;;;;;5024437;28;20212;-70
2022/09/07 09:48:32;;;;;;;12.63;5.32;;;24.40;99.90;;;;;;5022206;28;20258;-71
2022/09/07 09:50:59;;;;;;;9.10;7.90;;;24.50;99.90;;;;;;5024217;28;20243;-72
2022/09/07 09:53:34;;;;;;;9.85;5.75;;;24.60;99.90;;;;;;5028203;28;20242;-74
2022/09/07 09:56:02;;;;;;;13.18;6.10;;;24.60;99.90;;;;;;5023571;28;20211;-72
2022/09/07 09:58:35;;;;;;;7.82;5.57;;;24.70;99.90;;;;;;5028229;28;20200;-72
2022/09/07 10:01:06;;;;;;;7.88;6.20;;;24.80;99.90;;;;;;5026161;28;20209;-74
2022/09/07 10:03:33;;;;;;;9.43;5.53;;;25.00;99.90;;;;;;5022264;28;20696;-73
2022/09/07 10:06:03;;;;;;;8.65;5.88;;;25.40;99.90;;;;;;5025097;28;20176;-73
2022/09/07 10:08:31;;;;;;;8.82;5.95;;;25.40;99.90;;;;;;5032527;28;20547;-73
2022/09/07 10:11:04;;;;;;;7.80;6.20;;;25.60;99.90;;;;;;5028803;28;20225;-75
2022/09/07 10:13:37;;;;;;;9.32;6.10;;;25.10;99.90;;;;;;5026907;28;20216;-74
2022/09/07 10:16:08;;;;;;;8.07;5.93;;;24.90;99.90;;;;;;5030576;28;20300;-74
2022/09/07 10:18:37;;;;;;;11.68;6.10;;;24.90;99.90;;;;;;5031620;28;20583;-75
2022/09/07 10:21:26;;;;;;;9.45;6.20;;;25.10;99.90;;;;;;5023465;28;20226;-77
2022/09/07 10:23:56;;;;;;;8.98;6.32;;;25.00;99.90;;;;;;5026640;28;20227;-78
2022/09/07 10:26:34;;;;;;;10.45;6.65;;;24.70;99.90;;;;;;5033223;28;20271;-77
2022/09/07 10:29:09;;;;;;;12.00;7.05;;;24.40;99.90;;;;;;5041712;28;20212;-72
2022/09/07 10:31:54;;;;;;;8.63;6.95;;;24.30;99.90;;;;;;5029430;28;20243;-76
2022/09/07 10:34:25;;;;;;;9.52;6.82;;;24.20;99.90;;;;;;5031469;28;20250;-71
2022/09/07 10:37:01;;;;;;;11.30;7.32;;;24.50;99.90;;;;;;5027560;28;20212;-77
2022/09/07 10:39:35;;;;;;;9.05;7.35;;;24.30;99.90;;;;;;5031437;28;20200;-73
2022/09/07 10:42:16;;;;;;;12.70;8.02;;;24.10;99.90;;;;;;5030525;28;20203;-73
2022/09/07 10:44:56;;;;;;;10.70;7.82;;;24.20;99.90;;;;;;5028117;28;20750;-74
2022/09/07 10:47:53;;;;;;;12.65;7.25;;;24.10;99.90;;;;;;5027681;28;20230;-72
2022/09/07 10:50:35;;;;;;;9.35;6.60;;;24.00;99.90;;;;;;5030036;28;20235;-72
2022/09/07 10:53:15;;;;;;;9.07;6.30;;;24.10;99.90;;;;;;5027823;28;20638;-71
2022/09/07 10:55:48;;;;;;;11.38;7.57;;;24.20;99.90;;;;;;5024504;28;20265;-72
2022/09/07 10:58:47;;;;;;;7.45;6.25;;;24.40;99.90;;;;;;5031280;28;20211;-71
2022/09/07 11:01:29;;;;;;;10.55;7.35;;;24.50;99.90;;;;;;5029709;28;20614;-70
2022/09/07 11:04:24;;;;;;;11.35;7.70;;;24.20;99.90;;;;;;5028365;28;20211;-71
2022/09/07 11:06:54;;;;;;;10.23;7.30;;;24.00;99.90;;;;;;5040687;28;20209;-71
2022/09/07 11:09:22;;;;;;;10.55;7.95;;;24.10;99.90;;;;;;5028802;28;20219;-73
2022/09/07 11:12:02;;;;;;;8.60;6.95;;;24.10;99.90;;;;;;5024046;28;20280;-70
2022/09/07 11:14:33;;;;;;;10.93;7.25;;;24.10;99.90;;;;;;5029921;28;20169;-71
2022/09/07 11:17:04;;;;;;;7.70;6.55;;;24.20;99.90;;;;;;5030103;28;20250;-71
2022/09/07 11:19:42;;;;;;;9.73;6.72;;;24.40;99.90;;;;;;5026985;28;20275;-74
2022/09/07 11:22:30;;;;;;;8.85;6.90;;;24.40;99.90;;;;;;5029895;28;20220;-72
2022/09/07 11:25:03;;;;;;;12.82;7.05;;;24.60;99.90;;;;;;5026941;28;20208;-71
2022/09/07 11:27:38;;;;;;;10.23;7.07;;;24.60;99.90;;;;;;5030746;28;20775;-71
2022/09/07 11:30:14;;;;;;;9.48;7.57;;;24.70;99.90;;;;;;5043511;28;20184;-71
2022/09/07 11:32:53;;;;;;;8.90;6.93;;;24.90;99.90;;;;;;5032135;28;20211;-71
2022/09/07 11:35:30;;;;;;;8.30;6.40;;;25.00;99.90;;;;;;5026223;28;20572;-71
2022/09/07 11:38:02;;;;;;;12.57;6.80;;;25.10;99.90;;;;;;5028115;28;20215;-71
2022/09/07 11:40:38;;;;;;;7.80;6.80;;;25.00;99.90;;;;;;5027374;28;20207;-71
2022/09/07 11:43:29;;;;;;;9.93;7.55;;;25.20;99.90;;;;;;5029373;28;20204;-73
2022/09/07 11:45:59;;;;;;;8.75;6.45;;;25.20;99.90;;;;;;5027398;28;20200;-72
2022/09/07 11:48:32;;;;;;;10.52;6.72;;;25.30;99.90;;;;;;5025185;28;20247;-72
2022/09/07 11:51:08;;;;;;;8.00;7.10;;;25.10;99.90;;;;;;5027884;28;20299;-71
2022/09/07 11:53:40;;;;;;;10.07;6.72;;;25.10;99.90;;;;;;5026973;28;20286;-77
2022/09/07 11:56:14;;;;;;;9.38;6.40;;;25.30;99.90;;;;;;5023034;28;20205;-72
2022/09/07 11:59:27;;;;;;;10.13;6.95;;;25.50;99.90;;;;;;5030400;28;20642;-71
2022/09/07 12:02:14;;;;;;;9.10;6.60;;;25.10;99.90;;;;;;4975657;28;20220;-71
2022/09/07 12:04:58;;;;;;;7.72;6.85;;;25.10;99.90;;;;;;5023851;28;20208;-73
2022/09/07 12:07:43;;;;;;;8.43;7.45;;;25.30;99.90;;;;;;5023333;28;20538;-72
2022/09/07 12:10:30;;;;;;;10.10;6.85;;;25.30;99.90;;;;;;5025704;28;20220;-70
2022/09/07 12:13:21;;;;;;;9.35;6.72;;;25.30;99.90;;;;;;5020216;28;20213;-71
2022/09/07 12:16:17;;;;;;;10.57;7.15;;;25.50;99.90;;;;;;5026321;28;20219;-70
2022/09/07 12:19:10;;;;;;;9.80;7.57;;;25.80;99.90;;;;;;5025079;28;20204;-70
2022/09/07 12:21:51;;;;;;;9.25;7.72;;;26.00;99.90;;;;;;5023263;28;20721;-71
2022/09/07 12:24:38;;;;;;;10.27;6.97;;;26.10;99.90;;;;;;5029797;28;20231;-71
2022/09/07 12:27:30;;;;;;;10.30;7.10;;;25.90;99.90;;;;;;5025435;28;20181;-70
2022/09/07 12:29:56;;;;;;;9.25;6.88;;;26.10;99.90;;;;;;5017570;28;20682;-70
2022/09/07 12:33:03;;;;;;;8.23;7.43;;;26.00;99.90;;;;;;5027052;28;20219;-70
2022/09/07 12:35:39;;;;;;;8.68;7.28;;;25.70;99.90;;;;;;5022392;28;20210;-70
2022/09/07 12:38:17;;;;;;;8.60;7.47;;;25.80;99.90;;;;;;5022697;28;20695;-70
2022/09/07 12:41:19;;;;;;;8.10;7.30;;;25.80;99.90;;;;;;5026630;28;20253;-70
2022/09/07 12:43:47;;;;;;;9.35;6.63;;;25.70;99.90;;;;;;5025086;28;20208;-70
2022/09/07 12:46:38;;;;;;;9.18;6.82;;;25.80;99.90;;;;;;5024246;28;20196;-70
2022/09/07 12:49:27;;;;;;;10.00;7.78;;;25.80;99.90;;;;;;5005158;28;20205;-70
2022/09/07 12:52:21;;;;;;;9.93;7.22;;;25.50;99.90;;;;;;5024992;28;20303;-69
2022/09/07 12:55:02;;;;;;;9.13;8.07;;;25.50;99.90;;;;;;5022135;28;20209;-70
2022/09/07 12:57:55;;;;;;;9.13;6.70;;;25.50;99.90;;;;;;5027895;28;20615;-70
2022/09/07 13:00:23;;;;;;;8.48;6.90;;;25.40;99.90;;;;;;5036334;28;20761;-68
2022/09/07 13:02:58;;;;;;;11.43;7.30;;;25.30;99.90;;;;;;5023096;28;20235;-67
2022/09/07 13:05:43;;;;;;;12.95;9.63;;;25.30;99.90;;;;;;5023889;28;20176;-69
2022/09/07 13:08:09;;;;;;;8.52;7.63;;;25.20;99.90;;;;;;5027185;28;20213;-69
2022/09/07 13:10:36;;;;;;;11.35;7.82;;;25.30;99.90;;;;;;5025364;28;20266;-69
2022/09/07 13:13:05;;;;;;;10.20;6.97;;;25.20;99.90;;;;;;5021309;28;20217;-69
2022/09/07 13:15:37;;;;;;;9.68;7.47;;;25.30;99.90;;;;;;5029203;28;20204;-69